METAR Data
IDs: Format: Raw Decoded Include TAF

Data at: 1456 UTC 10 Aug 2022

KTCS 101453Z AUTO VRB03KT 10SM OVC110 25/14 A3030 RMK AO2 SLP175 60000 T02500139 53010

KTCS 101132Z 1012/1112 30008KT P6SM VCSH BKN060 BKN120
  FM101400 02008KT P6SM SCT070 BKN200
  FM102100 16010KT P6SM VCTS BKN070CB BKN120
  FM110300 29008KT P6SM SCT070 BKN200